Flight Track Log - Related Links

Times and Time Zones

All times are in EDT time to prevent confusion due to time zone crossing. See the CCA4334 flight status page for this flight to view local times or setup timezone preferences in your user account.

Time Position Orientation Groundspeed Altitude Reporting Facility
EDT Latitude Longitude Course Direction KTS MPH feet Rate Location/Type
Wed 06:51:00 AM 23.6865 112.9518 313° West  Level Estimated
Wed 06:52:00 AM 23.7452 112.8823 313° West  Level Estimated
Wed 06:53:00 AM 23.8039 112.8126 313° West  Level Estimated
Wed 06:54:00 AM 23.8625 112.7429 313° West  Level Estimated
Wed 06:55:00 AM 23.9211 112.6731 313° West  Level Estimated
Wed 06:56:00 AM 23.9797 112.6033 313° West  Level Estimated
Wed 06:57:00 AM 24.0383 112.5334 313° West  Level Estimated
Wed 06:58:00 AM 24.0968 112.4635 313° West  Level Estimated
Wed 06:59:00 AM 24.1553 112.3934 312° West  Level Estimated
Wed 07:00:00 AM 24.2138 112.3234 312° West  Level Estimated
Wed 07:01:00 AM 24.2722 112.2532 312° West  Level Estimated
Wed 07:02:00 AM 24.3306 112.1830 312° West  Level Estimated
Wed 07:03:00 AM 24.3890 112.1127 312° West  Level Estimated
Wed 07:04:00 AM 24.4473 112.0424 312° West  Level Estimated
Wed 07:05:00 AM 24.5056 111.9720 312° West  Level Estimated
Wed 07:06:00 AM 24.5639 111.9015 312° West  Level Estimated
Wed 07:07:00 AM 24.6221 111.8310 312° West  Level Estimated
Wed 07:08:00 AM 24.6803 111.7604 312° West  Level Estimated
Wed 07:09:00 AM 24.7384 111.6897 312° West  Level Estimated
Wed 07:10:00 AM 24.7966 111.6190 312° West  Level Estimated
Wed 07:11:00 AM 24.8547 111.5482 312° West  Level Estimated
Wed 07:12:00 AM 24.9128 111.4773 312° West  Level Estimated
Wed 07:13:00 AM 24.9708 111.4063 312° West  Level Estimated
Wed 07:14:00 AM 25.0288 111.3354 312° West  Level Estimated
Wed 07:15:00 AM 25.0868 111.2643 312° West  Level Estimated
Wed 07:16:00 AM 25.1447 111.1931 312° West  Level Estimated
Wed 07:17:00 AM 25.2026 111.1219 312° West  Level Estimated
Wed 07:18:00 AM 25.2605 111.0507 312° West  Level Estimated
Wed 07:19:00 AM 25.3183 110.9793 312° West  Level Estimated
Wed 07:20:00 AM 25.3761 110.9079 312° West  Level Estimated
Wed 07:21:00 AM 25.4338 110.8364 312° West  Level Estimated
Wed 07:22:00 AM 25.4916 110.7649 312° West  Level Estimated
Wed 07:23:00 AM 25.5493 110.6933 312° West  Level Estimated
Wed 07:24:00 AM 25.6069 110.6216 312° West  Level Estimated
Wed 07:25:00 AM 25.6646 110.5499 312° West  Level Estimated
Wed 07:26:00 AM 25.7221 110.4780 312° West  Level Estimated
Wed 07:27:00 AM 25.7797 110.4061 312° West  Level Estimated
Wed 07:28:00 AM 25.8372 110.3342 312° West  Level Estimated
Wed 07:29:00 AM 25.8947 110.2622 312° West  Level Estimated
Wed 07:30:00 AM 25.9521 110.1900 312° West  Level Estimated
Wed 07:31:00 AM 26.0096 110.1179 312° West  Level Estimated
Wed 07:32:00 AM 26.0669 110.0456 311° West  Level Estimated
Wed 07:33:00 AM 26.1243 109.9733 311° West  Level Estimated
Wed 07:34:00 AM 26.1816 109.9009 311° West  Level Estimated
Wed 07:35:00 AM 26.2388 109.8285 311° West  Level Estimated
Wed 07:36:00 AM 26.2961 109.7560 311° West  Level Estimated
Wed 07:37:00 AM 26.3533 109.6834 311° West  Level Estimated
Wed 07:38:00 AM 26.4104 109.6107 311° West  Level Estimated
Wed 07:39:00 AM 26.4675 109.5379 311° West  Level Estimated
Wed 07:40:00 AM 26.5246 109.4651 311° West  Level Estimated
Wed 07:41:00 AM 26.5817 109.3923 311° West  Level Estimated
Wed 07:42:00 AM 26.6387 109.3193 311° West  Level Estimated
Wed 07:43:00 AM 26.6956 109.2463 311° West  Level Estimated
Wed 07:44:00 AM 26.7526 109.1731 311° West  Level Estimated
Wed 07:45:00 AM 26.8095 109.1000 311° West  Level Estimated
Wed 07:46:00 AM 26.8663 109.0267 311° West  Level Estimated
Wed 07:47:00 AM 26.9231 108.9534 311° West  Level Estimated
Wed 07:48:00 AM 26.9799 108.8800 311° West  Level Estimated
Wed 07:49:00 AM 27.0367 108.8065 311° West  Level Estimated
Wed 07:50:00 AM 27.0934 108.7330 311° West  Level Estimated
Wed 07:51:00 AM 27.1501 108.6593 311° West  Level Estimated
Wed 07:52:00 AM 27.2067 108.5856 311° West  Level Estimated
Wed 07:53:00 AM 27.2633 108.5119 311° West  Level Estimated
Wed 07:54:00 AM 27.3198 108.4380 311° West  Level Estimated
Wed 07:55:00 AM 27.3763 108.3641 311° West  Level Estimated
Wed 07:56:00 AM 27.4328 108.2901 311° West  Level Estimated
Wed 07:57:00 AM 27.4893 108.2160 311° West  Level Estimated
Wed 07:58:00 AM 27.5457 108.1419 311° West  Level Estimated
Wed 07:59:00 AM 27.6020 108.0677 311° West  Level Estimated
Wed 08:00:00 AM 27.6583 107.9934 311° West  Level Estimated
Wed 08:01:00 AM 27.7146 107.9190 311° West  Level Estimated
Wed 08:02:00 AM 27.7709 107.8445 310° West  Level Estimated
Wed 08:03:00 AM 27.8271 107.7700 310° West  Level Estimated
Wed 08:04:00 AM 27.8832 107.6954 310° West  Level Estimated
Wed 08:05:00 AM 27.9393 107.6207 310° West  Level Estimated
Wed 08:06:00 AM 27.9954 107.5459 310° West  Level Estimated
Wed 08:07:00 AM 28.0515 107.4711 310° West  Level Estimated
Wed 08:08:00 AM 28.1075 107.3962 310° West  Level Estimated
Wed 08:09:00 AM 28.1634 107.3212 310° West  Level Estimated
Wed 08:10:00 AM 28.2193 107.2461 310° West  Level Estimated
Wed 08:11:00 AM 28.2752 107.1709 310° West  Level Estimated
Wed 08:12:00 AM 28.3310 107.0957 310° West  Level Estimated
Wed 08:13:00 AM 28.3868 107.0204 310° West  Level Estimated
Wed 08:14:00 AM 28.4426 106.9450 310° West  Level Estimated
Wed 08:15:00 AM 28.4983 106.8695 310° West  Level Estimated
Wed 08:16:00 AM 28.5540 106.7940 310° West  Level Estimated
Wed 08:17:00 AM 28.6096 106.7184 310° West  Level Estimated
Wed 08:18:00 AM 28.6652 106.6426 310° West  Level Estimated
Wed 08:19:00 AM 28.7207 106.5668 310° West  Level Estimated
Wed 08:20:00 AM 28.7762 106.4910 310° West  Level Estimated
Wed 08:21:00 AM 28.8317 106.4150 310° West  Level Estimated
Wed 08:22:00 AM 28.8871 106.3390 310° West  Level Estimated
Wed 08:23:00 AM 28.9424 106.2629 310° West  Level Estimated
Wed 08:24:00 AM 28.9978 106.1867 310° West  Level Estimated
Wed 08:25:00 AM 29.0530 106.1104 310° West  Level Estimated
Wed 08:26:00 AM 29.1083 106.0340 310° West  Level Estimated
Wed 08:27:00 AM 29.1635 105.9576 310° West  Level Estimated
Wed 08:28:00 AM 29.2187 105.8811 310° West  Level Estimated
Wed 08:29:00 AM 29.2738 105.8045 310° West  Level Estimated
Wed 08:30:00 AM 29.3288 105.7278 309° West  Level Estimated
Wed 08:31:00 AM 29.3839 105.6510 309° West  Level Estimated
Wed 08:32:00 AM 29.4388 105.5741 309° West  Level Estimated
Wed 08:33:00 AM 29.4938 105.4972 309° West  Level Estimated
Wed 08:34:00 AM 29.5487 105.4202 309° West  Level Estimated
Wed 08:35:00 AM 29.6035 105.3431 309° West  Level Estimated
Wed 08:36:00 AM 29.6583 105.2659 309° West  Level Estimated
Wed 08:37:00 AM 29.7131 105.1886 309° West  Level Estimated
Wed 08:38:00 AM 29.7678 105.1113 309° West  Level Estimated
Wed 08:39:00 AM 29.8225 105.0338 309° West  Level Estimated
Wed 08:40:00 AM 29.8771 104.9563 309° West  Level Estimated
Wed 08:41:00 AM 29.9317 104.8787 309° West  Level Estimated
Wed 08:42:00 AM 29.9862 104.8010 309° West  Level Estimated
Wed 08:43:00 AM 30.0407 104.7232 309° West  Level Estimated

Login

Don't have an account? Register now (free) for customized features, flight alerts, and more!